Aérodrome :
LOGIN :

S'inscrire | Disclaimer

   EN    FR    IT 

 










Légende :    VFR   VFR Marginal   IFR   IFR Intensif   IFR Très Intensif
Visi : 
Plafond : 
>= 8 km
>= 3000ft
5 à 8 km
1000 à 3000 ft
1500m à 5 km
500 à 1000 ft
800 à 1500m
200 à 500 ft
< 800m
< 200 ft
Symboles :   Orages  Brouillard  Fortes neiges  Fortes précipitations  Vent > 20 kt
SIGMETs :   Divers  Orages  Givrage  Turbulence  Onde Orograph.  Cendres Volcan.







- Altitude de l'aérodrome : 1367 ft
- Code IATA : FDH


EDNY - Friedrichshafen

DERNIER METAR :
  • 221750Z 25008KT 8000 RA BKN017 BKN026 OVC030 09/08 Q1012

METARs EXPIRÉS :
  • 221720Z 25011KT 8000 RA BKN024 OVC040 09/08 Q1011
  • 221650Z 24013KT 6000 RA BKN022 BKN040 OVC046 09/07 Q1011
  • 221620Z 23011KT 6000 RA BKN016 BKN026 OVC049 08/07 Q1011
  • 221550Z 21007KT 6000 RA FEW014 OVC016 08/07 Q1010
  • 221520Z 20007KT 8000 RA BKN018 OVC026 07/06 Q1010

TAF TAF EDNY
Valide du 22 à 18h jusqu'au 23 à 18h UTC


221700Z 2218/2318 24012KT 7000 RA BKN020
BECMG 2218/2220 23005KT
TEMPO 2218/2221 4000 RA BKN008
PROB30
TEMPO 2221/2307 BKN008
BECMG 2316/2318 VRB03KT
Pas de NOTAMs connus pour ce terrain.



MET'MAP, la Météo Aéronautique d'un coup d'oeil ! - Copyright ORBIFLY Décembre 2007 - Disclaimer

ORBIFLY MET'MAP TEAM :

Programmation & Développement : Alexandra Zaïnal
Conception & Développement : Baudouin d'Aumeries
Co-Programmation & Développement : Marc-Olivier Méhu
Soutien technique & logistique : Manuel Goepfert

Contact : metmap@orbifly.com




SOURCES & CREDITS :

   NOAA